Portada
METAR-TAF:

METAR-TAF

Aeroports :

Alice Springs, Austràlia

latitud: 23-48S, longitud: 133-53E, altitud: 545 m

Observació

L'informe es va fer fa 41 minuts, a les 03:00 UTC
Vent 12 kt del Est
Temperatura 13°C
Humitat 33%
Pressió 1027 hPa
Visibilitat 10 km o més

METAR: YBAS 180300Z AUTO 10012KT 9999 // NCD 13/M03 Q1027 RF00.0/000.0

Hora: 13:11 (03:41 UTC)

Pronòstic

L'informe es va fer fa 4 hores i 35 minuts, a les 23:06 UTC
Pronòstic vàlid del 18 a les 00 UTC al 18 a les 24 UTC
Vent 14 kt del Est
Visibilitat 10 km o més
sense núvols per sota de 1500 mi sense presència de cumulonimbus.
A partir de les 18 a les 0800 UTC
Vent 6 kt del Est/Nord-Est
Visibilitat 10 km o més
sense núvols per sota de 1500 mi sense presència de cumulonimbus.
A partir de les 18 a les 1500 UTC
Vent 5 kt del Oest/Nord-Oest
Visibilitat 10 km o més
sense núvols per sota de 1500 mi sense presència de cumulonimbus.

TAF: YBAS 172306Z 1800/1824 09014KT CAVOK FM180800 07006KT CAVOK FM181500 30005KT CAVOK

Observacions i pronòstics meteorològics de més de 4000 aeroports (METAR i TAF).

Les estacions disponibles són els punts grocs i vermells al mapa.

Posi el ratolí al punt desitjat per veure el nom de l'estació.

Feu clic per veure les observacions i els pronòstics meteorològics.

Per canviar el mapa: feu clic els botons verds amb una creu de color negre per apropar; al botó verd amb un guió per allunyar la imatge; o en les fletxes verdes per a mapes adjacents.


METAR-TAF: